sensor_id;sensor_type;location;lat;lon;timestamp;P1;durP1;ratioP1;P2;durP2;ratioP2
7783;SDS011;19359;51.402;6.778;2022-10-30T00:00:45;10.15;;;3.67;;
7783;SDS011;19359;51.402;6.778;2022-10-30T00:03:14;15.10;;;3.40;;
7783;SDS011;19359;51.402;6.778;2022-10-30T00:05:42;9.52;;;3.75;;
7783;SDS011;19359;51.402;6.778;2022-10-30T00:08:09;8.23;;;3.92;;
7783;SDS011;19359;51.402;6.778;2022-10-30T00:10:37;11.40;;;3.30;;
7783;SDS011;19359;51.402;6.778;2022-10-30T00:13:04;6.75;;;3.03;;
7783;SDS011;19359;51.402;6.778;2022-10-30T00:15:31;7.13;;;2.45;;
7783;SDS011;19359;51.402;6.778;2022-10-30T00:17:58;3.50;;;2.58;;
7783;SDS011;19359;51.402;6.778;2022-10-30T00:20:27;8.45;;;2.78;;
7783;SDS011;19359;51.402;6.778;2022-10-30T00:22:54;5.20;;;3.03;;
7783;SDS011;19359;51.402;6.778;2022-10-30T00:25:20;7.75;;;3.10;;
7783;SDS011;19359;51.402;6.778;2022-10-30T00:27:47;8.68;;;3.15;;
7783;SDS011;19359;51.402;6.778;2022-10-30T00:30:14;7.57;;;3.85;;
7783;SDS011;19359;51.402;6.778;2022-10-30T00:32:42;8.73;;;3.65;;
7783;SDS011;19359;51.402;6.778;2022-10-30T00:35:09;7.65;;;3.22;;
7783;SDS011;19359;51.402;6.778;2022-10-30T00:37:37;4.43;;;3.28;;
7783;SDS011;19359;51.402;6.778;2022-10-30T00:40:05;7.05;;;3.13;;
7783;SDS011;19359;51.402;6.778;2022-10-30T00:42:32;4.78;;;3.47;;
7783;SDS011;19359;51.402;6.778;2022-10-30T00:44:59;6.22;;;3.60;;
7783;SDS011;19359;51.402;6.778;2022-10-30T00:47:27;6.90;;;3.03;;
7783;SDS011;19359;51.402;6.778;2022-10-30T00:49:58;7.20;;;3.40;;
7783;SDS011;19359;51.402;6.778;2022-10-30T00:52:27;14.75;;;2.88;;
7783;SDS011;19359;51.402;6.778;2022-10-30T00:55:00;11.38;;;3.45;;
7783;SDS011;19359;51.402;6.778;2022-10-30T00:57:30;8.27;;;3.75;;
7783;SDS011;19359;51.402;6.778;2022-10-30T00:59:57;12.82;;;4.05;;
7783;SDS011;19359;51.402;6.778;2022-10-30T01:02:25;14.20;;;3.45;;
7783;SDS011;19359;51.402;6.778;2022-10-30T01:04:52;13.30;;;4.03;;
7783;SDS011;19359;51.402;6.778;2022-10-30T01:07:20;11.32;;;3.22;;
7783;SDS011;19359;51.402;6.778;2022-10-30T01:09:47;9.50;;;3.22;;
7783;SDS011;19359;51.402;6.778;2022-10-30T01:12:15;10.68;;;3.38;;
7783;SDS011;19359;51.402;6.778;2022-10-30T01:14:43;8.05;;;3.30;;
7783;SDS011;19359;51.402;6.778;2022-10-30T01:17:24;5.78;;;4.00;;
7783;SDS011;19359;51.402;6.778;2022-10-30T01:20:10;8.20;;;3.47;;
7783;SDS011;19359;51.402;6.778;2022-10-30T01:22:51;10.65;;;3.72;;
7783;SDS011;19359;51.402;6.778;2022-10-30T01:25:30;14.98;;;3.47;;
7783;SDS011;19359;51.402;6.778;2022-10-30T01:28:11;15.10;;;4.55;;
7783;SDS011;19359;51.402;6.778;2022-10-30T01:30:52;6.03;;;3.42;;
7783;SDS011;19359;51.402;6.778;2022-10-30T01:33:31;10.73;;;3.95;;
7783;SDS011;19359;51.402;6.778;2022-10-30T01:36:07;4.80;;;3.53;;
7783;SDS011;19359;51.402;6.778;2022-10-30T01:38:43;7.57;;;3.35;;
7783;SDS011;19359;51.402;6.778;2022-10-30T01:41:16;4.53;;;4.15;;
7783;SDS011;19359;51.402;6.778;2022-10-30T01:43:44;6.50;;;4.07;;
7783;SDS011;19359;51.402;6.778;2022-10-30T01:46:18;15.68;;;4.00;;
7783;SDS011;19359;51.402;6.778;2022-10-30T01:48:59;6.28;;;3.40;;
7783;SDS011;19359;51.402;6.778;2022-10-30T01:51:39;11.38;;;3.65;;
7783;SDS011;19359;51.402;6.778;2022-10-30T01:54:18;11.25;;;3.50;;
7783;SDS011;19359;51.402;6.778;2022-10-30T01:56:54;9.30;;;4.10;;
7783;SDS011;19359;51.402;6.778;2022-10-30T01:59:31;15.15;;;3.65;;
7783;SDS011;19359;51.402;6.778;2022-10-30T02:02:02;11.60;;;3.70;;
7783;SDS011;19359;51.402;6.778;2022-10-30T02:04:29;6.40;;;4.10;;
7783;SDS011;19359;51.402;6.778;2022-10-30T02:06:56;14.32;;;4.75;;
7783;SDS011;19359;51.402;6.778;2022-10-30T02:09:23;9.55;;;4.85;;
7783;SDS011;19359;51.402;6.778;2022-10-30T02:11:51;10.45;;;4.07;;
7783;SDS011;19359;51.402;6.778;2022-10-30T02:14:19;10.23;;;4.13;;
7783;SDS011;19359;51.402;6.778;2022-10-30T02:16:51;7.43;;;3.45;;
7783;SDS011;19359;51.402;6.778;2022-10-30T02:19:19;7.00;;;4.13;;
7783;SDS011;19359;51.402;6.778;2022-10-30T02:21:47;8.23;;;3.75;;
7783;SDS011;19359;51.402;6.778;2022-10-30T02:24:14;4.57;;;4.13;;
7783;SDS011;19359;51.402;6.778;2022-10-30T02:26:41;7.63;;;3.20;;
7783;SDS011;19359;51.402;6.778;2022-10-30T02:29:07;10.63;;;4.13;;
7783;SDS011;19359;51.402;6.778;2022-10-30T02:31:34;10.65;;;3.65;;
7783;SDS011;19359;51.402;6.778;2022-10-30T02:34:02;7.70;;;3.95;;
7783;SDS011;19359;51.402;6.778;2022-10-30T02:36:29;6.57;;;3.42;;
7783;SDS011;19359;51.402;6.778;2022-10-30T02:38:57;12.43;;;4.38;;
7783;SDS011;19359;51.402;6.778;2022-10-30T02:41:24;9.77;;;3.97;;
7783;SDS011;19359;51.402;6.778;2022-10-30T02:43:50;7.95;;;3.97;;
7783;SDS011;19359;51.402;6.778;2022-10-30T02:46:17;11.27;;;4.35;;
7783;SDS011;19359;51.402;6.778;2022-10-30T02:48:44;15.77;;;4.47;;
7783;SDS011;19359;51.402;6.778;2022-10-30T02:51:11;10.02;;;4.10;;
7783;SDS011;19359;51.402;6.778;2022-10-30T02:53:37;7.88;;;5.15;;
7783;SDS011;19359;51.402;6.778;2022-10-30T02:56:06;9.57;;;4.55;;
7783;SDS011;19359;51.402;6.778;2022-10-30T02:58:34;12.10;;;4.63;;
7783;SDS011;19359;51.402;6.778;2022-10-30T03:01:04;8.48;;;4.07;;
7783;SDS011;19359;51.402;6.778;2022-10-30T03:03:32;9.45;;;3.72;;
7783;SDS011;19359;51.402;6.778;2022-10-30T03:05:59;8.80;;;3.95;;
7783;SDS011;19359;51.402;6.778;2022-10-30T03:08:27;8.77;;;4.72;;
7783;SDS011;19359;51.402;6.778;2022-10-30T03:10:57;11.13;;;3.97;;
7783;SDS011;19359;51.402;6.778;2022-10-30T03:13:27;8.20;;;3.88;;
7783;SDS011;19359;51.402;6.778;2022-10-30T03:15:58;14.93;;;4.82;;
7783;SDS011;19359;51.402;6.778;2022-10-30T03:18:25;6.88;;;4.22;;
7783;SDS011;19359;51.402;6.778;2022-10-30T03:20:54;18.83;;;4.40;;
7783;SDS011;19359;51.402;6.778;2022-10-30T03:23:22;8.02;;;4.35;;
7783;SDS011;19359;51.402;6.778;2022-10-30T03:25:50;6.10;;;4.30;;
7783;SDS011;19359;51.402;6.778;2022-10-30T03:28:18;8.63;;;4.43;;
7783;SDS011;19359;51.402;6.778;2022-10-30T03:30:46;8.55;;;4.00;;
7783;SDS011;19359;51.402;6.778;2022-10-30T03:33:13;12.00;;;4.18;;
7783;SDS011;19359;51.402;6.778;2022-10-30T03:35:42;12.02;;;3.90;;
7783;SDS011;19359;51.402;6.778;2022-10-30T03:38:09;23.42;;;5.53;;
7783;SDS011;19359;51.402;6.778;2022-10-30T03:40:36;12.43;;;3.95;;
7783;SDS011;19359;51.402;6.778;2022-10-30T03:43:03;17.75;;;4.45;;
7783;SDS011;19359;51.402;6.778;2022-10-30T03:45:30;8.88;;;4.75;;
7783;SDS011;19359;51.402;6.778;2022-10-30T03:47:59;11.60;;;4.45;;
7783;SDS011;19359;51.402;6.778;2022-10-30T03:50:26;11.32;;;4.35;;
7783;SDS011;19359;51.402;6.778;2022-10-30T03:52:53;11.15;;;4.47;;
7783;SDS011;19359;51.402;6.778;2022-10-30T03:55:20;7.85;;;3.47;;
7783;SDS011;19359;51.402;6.778;2022-10-30T03:57:47;8.98;;;4.82;;
7783;SDS011;19359;51.402;6.778;2022-10-30T04:00:14;5.85;;;4.07;;
7783;SDS011;19359;51.402;6.778;2022-10-30T04:02:45;6.80;;;4.07;;
7783;SDS011;19359;51.402;6.778;2022-10-30T04:05:13;5.18;;;3.85;;
7783;SDS011;19359;51.402;6.778;2022-10-30T04:07:41;9.05;;;4.45;;
7783;SDS011;19359;51.402;6.778;2022-10-30T04:10:08;7.30;;;4.07;;
7783;SDS011;19359;51.402;6.778;2022-10-30T04:12:35;11.82;;;4.30;;
7783;SDS011;19359;51.402;6.778;2022-10-30T04:15:03;8.45;;;4.43;;
7783;SDS011;19359;51.402;6.778;2022-10-30T04:17:31;13.10;;;4.97;;
7783;SDS011;19359;51.402;6.778;2022-10-30T04:19:58;11.00;;;4.45;;
7783;SDS011;19359;51.402;6.778;2022-10-30T04:22:26;7.05;;;4.05;;
7783;SDS011;19359;51.402;6.778;2022-10-30T04:24:53;9.98;;;4.57;;
7783;SDS011;19359;51.402;6.778;2022-10-30T04:27:20;10.13;;;4.35;;
7783;SDS011;19359;51.402;6.778;2022-10-30T04:29:46;4.38;;;3.97;;
7783;SDS011;19359;51.402;6.778;2022-10-30T04:32:13;16.13;;;5.25;;
7783;SDS011;19359;51.402;6.778;2022-10-30T04:34:40;21.55;;;5.95;;
7783;SDS011;19359;51.402;6.778;2022-10-30T04:37:07;12.38;;;3.97;;
7783;SDS011;19359;51.402;6.778;2022-10-30T04:39:35;9.52;;;4.15;;
7783;SDS011;19359;51.402;6.778;2022-10-30T04:42:01;12.88;;;5.00;;
7783;SDS011;19359;51.402;6.778;2022-10-30T04:44:28;8.52;;;4.25;;
7783;SDS011;19359;51.402;6.778;2022-10-30T04:46:55;12.48;;;5.05;;
7783;SDS011;19359;51.402;6.778;2022-10-30T04:49:22;4.43;;;4.05;;
7783;SDS011;19359;51.402;6.778;2022-10-30T04:51:48;7.45;;;4.30;;
7783;SDS011;19359;51.402;6.778;2022-10-30T04:54:24;5.10;;;3.92;;
7783;SDS011;19359;51.402;6.778;2022-10-30T04:56:52;4.25;;;3.90;;
7783;SDS011;19359;51.402;6.778;2022-10-30T04:59:19;11.52;;;5.38;;
7783;SDS011;19359;51.402;6.778;2022-10-30T05:01:46;8.55;;;4.97;;
7783;SDS011;19359;51.402;6.778;2022-10-30T05:04:12;11.25;;;4.85;;
7783;SDS011;19359;51.402;6.778;2022-10-30T05:06:39;11.60;;;5.75;;
7783;SDS011;19359;51.402;6.778;2022-10-30T05:09:06;7.78;;;5.05;;
7783;SDS011;19359;51.402;6.778;2022-10-30T05:11:34;6.38;;;4.38;;
7783;SDS011;19359;51.402;6.778;2022-10-30T05:14:00;10.32;;;5.05;;
7783;SDS011;19359;51.402;6.778;2022-10-30T05:16:27;9.68;;;5.10;;
7783;SDS011;19359;51.402;6.778;2022-10-30T05:18:54;7.78;;;4.63;;
7783;SDS011;19359;51.402;6.778;2022-10-30T05:21:20;8.65;;;4.40;;
7783;SDS011;19359;51.402;6.778;2022-10-30T05:23:47;7.55;;;4.75;;
7783;SDS011;19359;51.402;6.778;2022-10-30T05:26:14;7.10;;;5.32;;
7783;SDS011;19359;51.402;6.778;2022-10-30T05:28:42;8.77;;;4.72;;
7783;SDS011;19359;51.402;6.778;2022-10-30T05:31:08;10.48;;;4.53;;
7783;SDS011;19359;51.402;6.778;2022-10-30T05:33:35;18.88;;;5.28;;
7783;SDS011;19359;51.402;6.778;2022-10-30T05:36:02;13.55;;;4.50;;
7783;SDS011;19359;51.402;6.778;2022-10-30T05:38:29;13.75;;;4.75;;
7783;SDS011;19359;51.402;6.778;2022-10-30T05:40:56;10.60;;;5.38;;
7783;SDS011;19359;51.402;6.778;2022-10-30T05:43:23;10.55;;;4.93;;
7783;SDS011;19359;51.402;6.778;2022-10-30T05:45:51;9.90;;;4.90;;
7783;SDS011;19359;51.402;6.778;2022-10-30T05:48:17;8.15;;;4.53;;
7783;SDS011;19359;51.402;6.778;2022-10-30T05:50:44;6.55;;;4.78;;
7783;SDS011;19359;51.402;6.778;2022-10-30T05:53:11;7.03;;;4.70;;
7783;SDS011;19359;51.402;6.778;2022-10-30T05:55:38;15.38;;;4.57;;
7783;SDS011;19359;51.402;6.778;2022-10-30T05:58:05;4.45;;;4.15;;
7783;SDS011;19359;51.402;6.778;2022-10-30T06:00:32;5.57;;;4.82;;
7783;SDS011;19359;51.402;6.778;2022-10-30T06:03:02;9.98;;;5.38;;
7783;SDS011;19359;51.402;6.778;2022-10-30T06:05:30;7.18;;;4.90;;
7783;SDS011;19359;51.402;6.778;2022-10-30T06:07:58;12.05;;;4.90;;
7783;SDS011;19359;51.402;6.778;2022-10-30T06:10:26;7.07;;;4.53;;
7783;SDS011;19359;51.402;6.778;2022-10-30T06:12:53;7.35;;;5.28;;
7783;SDS011;19359;51.402;6.778;2022-10-30T06:15:21;14.18;;;4.78;;
7783;SDS011;19359;51.402;6.778;2022-10-30T06:17:48;15.85;;;4.70;;
7783;SDS011;19359;51.402;6.778;2022-10-30T06:20:16;11.70;;;4.63;;
7783;SDS011;19359;51.402;6.778;2022-10-30T06:22:51;12.52;;;5.32;;
7783;SDS011;19359;51.402;6.778;2022-10-30T06:25:19;12.30;;;4.80;;
7783;SDS011;19359;51.402;6.778;2022-10-30T06:27:46;6.68;;;5.38;;
7783;SDS011;19359;51.402;6.778;2022-10-30T06:30:12;9.40;;;5.30;;
7783;SDS011;19359;51.402;6.778;2022-10-30T06:32:39;8.93;;;4.85;;
7783;SDS011;19359;51.402;6.778;2022-10-30T06:35:06;7.90;;;4.88;;
7783;SDS011;19359;51.402;6.778;2022-10-30T06:37:35;6.60;;;4.60;;
7783;SDS011;19359;51.402;6.778;2022-10-30T06:40:03;10.70;;;4.88;;
7783;SDS011;19359;51.402;6.778;2022-10-30T06:42:31;9.25;;;4.45;;
7783;SDS011;19359;51.402;6.778;2022-10-30T06:44:58;8.30;;;4.68;;
7783;SDS011;19359;51.402;6.778;2022-10-30T06:47:25;12.13;;;4.90;;
7783;SDS011;19359;51.402;6.778;2022-10-30T06:49:51;9.85;;;4.97;;
7783;SDS011;19359;51.402;6.778;2022-10-30T06:52:18;11.98;;;5.15;;
7783;SDS011;19359;51.402;6.778;2022-10-30T06:54:48;14.35;;;5.25;;
7783;SDS011;19359;51.402;6.778;2022-10-30T06:57:15;8.90;;;5.28;;
7783;SDS011;19359;51.402;6.778;2022-10-30T06:59:41;8.80;;;5.05;;
7783;SDS011;19359;51.402;6.778;2022-10-30T07:02:08;8.43;;;4.40;;
7783;SDS011;19359;51.402;6.778;2022-10-30T07:04:35;6.18;;;5.50;;
7783;SDS011;19359;51.402;6.778;2022-10-30T07:07:02;5.18;;;4.30;;
7783;SDS011;19359;51.402;6.778;2022-10-30T07:09:29;8.27;;;4.38;;
7783;SDS011;19359;51.402;6.778;2022-10-30T07:11:57;10.00;;;5.65;;
7783;SDS011;19359;51.402;6.778;2022-10-30T07:14:24;10.52;;;4.50;;
7783;SDS011;19359;51.402;6.778;2022-10-30T07:16:52;14.23;;;5.78;;
7783;SDS011;19359;51.402;6.778;2022-10-30T07:19:19;8.85;;;4.70;;
7783;SDS011;19359;51.402;6.778;2022-10-30T07:21:46;15.13;;;5.32;;
7783;SDS011;19359;51.402;6.778;2022-10-30T07:24:13;8.82;;;5.22;;
7783;SDS011;19359;51.402;6.778;2022-10-30T07:26:40;7.43;;;4.78;;
7783;SDS011;19359;51.402;6.778;2022-10-30T07:29:08;7.43;;;4.88;;
7783;SDS011;19359;51.402;6.778;2022-10-30T07:31:34;6.40;;;5.78;;
7783;SDS011;19359;51.402;6.778;2022-10-30T07:34:01;6.57;;;4.97;;
7783;SDS011;19359;51.402;6.778;2022-10-30T07:36:28;5.78;;;4.80;;
7783;SDS011;19359;51.402;6.778;2022-10-30T07:38:55;12.18;;;5.45;;
7783;SDS011;19359;51.402;6.778;2022-10-30T07:41:21;5.50;;;5.00;;
7783;SDS011;19359;51.402;6.778;2022-10-30T07:43:48;12.98;;;5.10;;
7783;SDS011;19359;51.402;6.778;2022-10-30T07:46:16;13.93;;;6.38;;
7783;SDS011;19359;51.402;6.778;2022-10-30T07:48:43;13.77;;;4.70;;
7783;SDS011;19359;51.402;6.778;2022-10-30T07:51:10;7.60;;;6.28;;
7783;SDS011;19359;51.402;6.778;2022-10-30T07:53:39;8.52;;;5.00;;
7783;SDS011;19359;51.402;6.778;2022-10-30T07:56:06;10.45;;;5.18;;
7783;SDS011;19359;51.402;6.778;2022-10-30T07:58:32;9.10;;;5.10;;
7783;SDS011;19359;51.402;6.778;2022-10-30T08:00:59;8.68;;;4.57;;
7783;SDS011;19359;51.402;6.778;2022-10-30T08:03:28;12.07;;;5.35;;
7783;SDS011;19359;51.402;6.778;2022-10-30T08:05:55;9.63;;;5.53;;
7783;SDS011;19359;51.402;6.778;2022-10-30T08:08:22;7.93;;;4.95;;
7783;SDS011;19359;51.402;6.778;2022-10-30T08:10:48;12.77;;;5.68;;
7783;SDS011;19359;51.402;6.778;2022-10-30T08:13:15;9.25;;;4.53;;
7783;SDS011;19359;51.402;6.778;2022-10-30T08:15:42;10.30;;;5.60;;
7783;SDS011;19359;51.402;6.778;2022-10-30T08:18:09;13.40;;;5.20;;
7783;SDS011;19359;51.402;6.778;2022-10-30T08:20:37;8.60;;;4.95;;
7783;SDS011;19359;51.402;6.778;2022-10-30T08:23:04;15.27;;;5.35;;
7783;SDS011;19359;51.402;6.778;2022-10-30T08:25:30;11.10;;;4.32;;
7783;SDS011;19359;51.402;6.778;2022-10-30T08:27:58;10.18;;;4.50;;
7783;SDS011;19359;51.402;6.778;2022-10-30T08:30:26;10.30;;;4.45;;
7783;SDS011;19359;51.402;6.778;2022-10-30T08:32:57;10.80;;;4.72;;
7783;SDS011;19359;51.402;6.778;2022-10-30T08:35:25;8.18;;;4.70;;
7783;SDS011;19359;51.402;6.778;2022-10-30T08:37:54;6.10;;;4.30;;
7783;SDS011;19359;51.402;6.778;2022-10-30T08:40:21;9.35;;;4.40;;
7783;SDS011;19359;51.402;6.778;2022-10-30T08:42:49;18.13;;;4.40;;
7783;SDS011;19359;51.402;6.778;2022-10-30T08:45:16;4.20;;;3.42;;
7783;SDS011;19359;51.402;6.778;2022-10-30T08:47:43;8.00;;;3.58;;
7783;SDS011;19359;51.402;6.778;2022-10-30T08:50:09;4.22;;;3.25;;
7783;SDS011;19359;51.402;6.778;2022-10-30T08:52:36;13.68;;;4.10;;
7783;SDS011;19359;51.402;6.778;2022-10-30T08:55:05;16.02;;;3.72;;
7783;SDS011;19359;51.402;6.778;2022-10-30T08:57:34;12.10;;;3.38;;
7783;SDS011;19359;51.402;6.778;2022-10-30T09:00:01;9.45;;;3.75;;
7783;SDS011;19359;51.402;6.778;2022-10-30T09:02:28;18.65;;;4.03;;
7783;SDS011;19359;51.402;6.778;2022-10-30T09:04:55;6.40;;;3.35;;
7783;SDS011;19359;51.402;6.778;2022-10-30T09:07:21;7.53;;;3.33;;
7783;SDS011;19359;51.402;6.778;2022-10-30T09:09:48;15.48;;;3.53;;
7783;SDS011;19359;51.402;6.778;2022-10-30T09:12:16;10.10;;;3.80;;
7783;SDS011;19359;51.402;6.778;2022-10-30T09:14:43;11.23;;;3.50;;
7783;SDS011;19359;51.402;6.778;2022-10-30T09:17:09;14.55;;;4.68;;
7783;SDS011;19359;51.402;6.778;2022-10-30T09:19:36;8.73;;;3.67;;
7783;SDS011;19359;51.402;6.778;2022-10-30T09:22:03;4.97;;;3.53;;
7783;SDS011;19359;51.402;6.778;2022-10-30T09:24:30;13.45;;;3.80;;
7783;SDS011;19359;51.402;6.778;2022-10-30T09:26:56;11.43;;;3.63;;
7783;SDS011;19359;51.402;6.778;2022-10-30T09:29:24;3.47;;;2.72;;
7783;SDS011;19359;51.402;6.778;2022-10-30T09:31:51;9.75;;;3.28;;
7783;SDS011;19359;51.402;6.778;2022-10-30T09:34:18;8.05;;;3.08;;
7783;SDS011;19359;51.402;6.778;2022-10-30T09:36:44;5.18;;;3.40;;
7783;SDS011;19359;51.402;6.778;2022-10-30T09:39:12;5.50;;;3.40;;
7783;SDS011;19359;51.402;6.778;2022-10-30T09:41:44;9.88;;;3.35;;
7783;SDS011;19359;51.402;6.778;2022-10-30T09:44:31;16.73;;;4.30;;
7783;SDS011;19359;51.402;6.778;2022-10-30T09:47:08;14.10;;;3.35;;
7783;SDS011;19359;51.402;6.778;2022-10-30T09:49:50;7.05;;;3.47;;
7783;SDS011;19359;51.402;6.778;2022-10-30T09:52:25;11.40;;;3.67;;
7783;SDS011;19359;51.402;6.778;2022-10-30T09:54:55;8.85;;;3.50;;
7783;SDS011;19359;51.402;6.778;2022-10-30T09:57:37;9.32;;;3.47;;
7783;SDS011;19359;51.402;6.778;2022-10-30T10:00:12;8.45;;;3.42;;
7783;SDS011;19359;51.402;6.778;2022-10-30T10:02:49;10.25;;;3.40;;
7783;SDS011;19359;51.402;6.778;2022-10-30T10:05:22;9.98;;;3.15;;
7783;SDS011;19359;51.402;6.778;2022-10-30T10:07:52;11.43;;;3.55;;
7783;SDS011;19359;51.402;6.778;2022-10-30T10:10:23;14.32;;;3.53;;
7783;SDS011;19359;51.402;6.778;2022-10-30T10:12:58;6.32;;;3.00;;
7783;SDS011;19359;51.402;6.778;2022-10-30T10:15:30;15.98;;;2.53;;
7783;SDS011;19359;51.402;6.778;2022-10-30T10:18:03;8.95;;;2.35;;
7783;SDS011;19359;51.402;6.778;2022-10-30T10:20:38;7.13;;;3.15;;
7783;SDS011;19359;51.402;6.778;2022-10-30T10:23:10;6.97;;;3.15;;
7783;SDS011;19359;51.402;6.778;2022-10-30T10:25:42;5.97;;;2.78;;
7783;SDS011;19359;51.402;6.778;2022-10-30T10:28:18;7.85;;;3.05;;
7783;SDS011;19359;51.402;6.778;2022-10-30T10:30:58;9.75;;;3.78;;
7783;SDS011;19359;51.402;6.778;2022-10-30T10:33:32;9.38;;;3.30;;
7783;SDS011;19359;51.402;6.778;2022-10-30T10:36:20;14.85;;;3.25;;
7783;SDS011;19359;51.402;6.778;2022-10-30T10:38:59;15.73;;;5.18;;
7783;SDS011;19359;51.402;6.778;2022-10-30T10:41:45;10.15;;;3.22;;
7783;SDS011;19359;51.402;6.778;2022-10-30T10:44:32;10.57;;;2.88;;
7783;SDS011;19359;51.402;6.778;2022-10-30T10:50:09;6.35;;;3.50;;
7783;SDS011;19359;51.402;6.778;2022-10-30T10:52:45;14.43;;;3.60;;
7783;SDS011;19359;51.402;6.778;2022-10-30T10:55:16;11.25;;;2.40;;
7783;SDS011;19359;51.402;6.778;2022-10-30T10:57:44;18.70;;;3.45;;
7783;SDS011;19359;51.402;6.778;2022-10-30T11:00:14;10.45;;;3.15;;
7783;SDS011;19359;51.402;6.778;2022-10-30T11:02:44;7.82;;;2.80;;
7783;SDS011;19359;51.402;6.778;2022-10-30T11:05:20;6.75;;;2.85;;
7783;SDS011;19359;51.402;6.778;2022-10-30T11:07:52;6.30;;;2.85;;
7783;SDS011;19359;51.402;6.778;2022-10-30T11:10:24;9.52;;;2.75;;
7783;SDS011;19359;51.402;6.778;2022-10-30T11:12:51;8.93;;;2.80;;
7783;SDS011;19359;51.402;6.778;2022-10-30T11:18:12;6.43;;;3.25;;
7783;SDS011;19359;51.402;6.778;2022-10-30T11:20:41;4.47;;;2.90;;
7783;SDS011;19359;51.402;6.778;2022-10-30T11:23:31;8.43;;;3.50;;
7783;SDS011;19359;51.402;6.778;2022-10-30T11:26:02;5.50;;;2.83;;
7783;SDS011;19359;51.402;6.778;2022-10-30T11:28:34;7.60;;;2.72;;
7783;SDS011;19359;51.402;6.778;2022-10-30T11:31:15;18.58;;;2.72;;
7783;SDS011;19359;51.402;6.778;2022-10-30T11:33:45;4.65;;;2.90;;
7783;SDS011;19359;51.402;6.778;2022-10-30T11:36:13;9.75;;;2.65;;
7783;SDS011;19359;51.402;6.778;2022-10-30T11:38:41;8.15;;;3.13;;
7783;SDS011;19359;51.402;6.778;2022-10-30T11:41:07;15.35;;;3.35;;
7783;SDS011;19359;51.402;6.778;2022-10-30T11:43:35;6.28;;;2.90;;
7783;SDS011;19359;51.402;6.778;2022-10-30T11:46:04;6.10;;;2.55;;
7783;SDS011;19359;51.402;6.778;2022-10-30T11:48:33;11.82;;;2.92;;
7783;SDS011;19359;51.402;6.778;2022-10-30T11:51:05;12.27;;;3.97;;
7783;SDS011;19359;51.402;6.778;2022-10-30T11:53:33;9.95;;;2.75;;
7783;SDS011;19359;51.402;6.778;2022-10-30T11:56:09;10.15;;;3.53;;
7783;SDS011;19359;51.402;6.778;2022-10-30T11:58:41;6.57;;;2.47;;
7783;SDS011;19359;51.402;6.778;2022-10-30T12:01:12;14.40;;;2.95;;
7783;SDS011;19359;51.402;6.778;2022-10-30T12:03:44;13.10;;;2.65;;
7783;SDS011;19359;51.402;6.778;2022-10-30T12:06:17;5.22;;;3.00;;
7783;SDS011;19359;51.402;6.778;2022-10-30T12:08:57;7.75;;;2.92;;
7783;SDS011;19359;51.402;6.778;2022-10-30T12:11:29;8.15;;;3.08;;
7783;SDS011;19359;51.402;6.778;2022-10-30T12:13:57;6.47;;;3.00;;
7783;SDS011;19359;51.402;6.778;2022-10-30T12:16:24;6.25;;;3.25;;
7783;SDS011;19359;51.402;6.778;2022-10-30T12:18:57;8.48;;;2.83;;
7783;SDS011;19359;51.402;6.778;2022-10-30T12:21:28;11.38;;;2.83;;
7783;SDS011;19359;51.402;6.778;2022-10-30T12:24:00;10.90;;;2.88;;
7783;SDS011;19359;51.402;6.778;2022-10-30T12:26:31;3.05;;;2.45;;
7783;SDS011;19359;51.402;6.778;2022-10-30T12:28:59;11.20;;;2.60;;
7783;SDS011;19359;51.402;6.778;2022-10-30T12:31:33;8.07;;;2.45;;
7783;SDS011;19359;51.402;6.778;2022-10-30T12:34:11;3.45;;;2.25;;
7783;SDS011;19359;51.402;6.778;2022-10-30T12:36:51;7.40;;;2.80;;
7783;SDS011;19359;51.402;6.778;2022-10-30T12:39:23;10.27;;;3.33;;
7783;SDS011;19359;51.402;6.778;2022-10-30T12:41:56;18.75;;;3.70;;
7783;SDS011;19359;51.402;6.778;2022-10-30T12:44:26;12.13;;;2.40;;
7783;SDS011;19359;51.402;6.778;2022-10-30T12:46:57;7.97;;;2.85;;
7783;SDS011;19359;51.402;6.778;2022-10-30T12:49:29;9.25;;;3.70;;
7783;SDS011;19359;51.402;6.778;2022-10-30T12:52:05;6.00;;;2.58;;
7783;SDS011;19359;51.402;6.778;2022-10-30T12:54:38;7.70;;;2.95;;
7783;SDS011;19359;51.402;6.778;2022-10-30T12:57:13;9.43;;;2.95;;
7783;SDS011;19359;51.402;6.778;2022-10-30T12:59:53;14.65;;;3.58;;
7783;SDS011;19359;51.402;6.778;2022-10-30T13:02:28;10.40;;;3.28;;
7783;SDS011;19359;51.402;6.778;2022-10-30T13:05:20;6.40;;;3.25;;
7783;SDS011;19359;51.402;6.778;2022-10-30T13:07:56;9.27;;;2.80;;
7783;SDS011;19359;51.402;6.778;2022-10-30T13:10:31;11.35;;;3.05;;
7783;SDS011;19359;51.402;6.778;2022-10-30T13:13:06;7.38;;;2.97;;
7783;SDS011;19359;51.402;6.778;2022-10-30T13:15:36;7.80;;;3.35;;
7783;SDS011;19359;51.402;6.778;2022-10-30T13:18:11;7.57;;;3.08;;
7783;SDS011;19359;51.402;6.778;2022-10-30T13:20:42;7.00;;;2.75;;
7783;SDS011;19359;51.402;6.778;2022-10-30T13:23:16;9.18;;;3.05;;
7783;SDS011;19359;51.402;6.778;2022-10-30T13:25:49;12.48;;;3.22;;
7783;SDS011;19359;51.402;6.778;2022-10-30T13:28:24;4.65;;;3.00;;
7783;SDS011;19359;51.402;6.778;2022-10-30T13:30:57;9.85;;;2.53;;
7783;SDS011;19359;51.402;6.778;2022-10-30T13:33:27;12.35;;;2.85;;
7783;SDS011;19359;51.402;6.778;2022-10-30T13:36:02;12.45;;;3.40;;
7783;SDS011;19359;51.402;6.778;2022-10-30T13:38:39;9.38;;;2.75;;
7783;SDS011;19359;51.402;6.778;2022-10-30T13:41:14;5.90;;;3.05;;
7783;SDS011;19359;51.402;6.778;2022-10-30T13:43:52;8.10;;;4.18;;
7783;SDS011;19359;51.402;6.778;2022-10-30T13:46:33;14.38;;;3.13;;
7783;SDS011;19359;51.402;6.778;2022-10-30T13:49:24;7.95;;;3.15;;
7783;SDS011;19359;51.402;6.778;2022-10-30T13:52:04;7.95;;;2.92;;
7783;SDS011;19359;51.402;6.778;2022-10-30T13:54:39;9.82;;;4.05;;
7783;SDS011;19359;51.402;6.778;2022-10-30T13:57:11;5.22;;;2.65;;
7783;SDS011;19359;51.402;6.778;2022-10-30T13:59:51;6.80;;;3.40;;
7783;SDS011;19359;51.402;6.778;2022-10-30T14:02:29;10.85;;;3.63;;
7783;SDS011;19359;51.402;6.778;2022-10-30T14:05:13;10.80;;;3.80;;
7783;SDS011;19359;51.402;6.778;2022-10-30T14:07:48;8.13;;;3.45;;
7783;SDS011;19359;51.402;6.778;2022-10-30T14:10:24;9.50;;;3.10;;
7783;SDS011;19359;51.402;6.778;2022-10-30T14:13:06;7.00;;;3.45;;
7783;SDS011;19359;51.402;6.778;2022-10-30T14:15:40;7.20;;;3.67;;
7783;SDS011;19359;51.402;6.778;2022-10-30T14:18:19;11.55;;;3.83;;
7783;SDS011;19359;51.402;6.778;2022-10-30T14:20:53;7.75;;;3.55;;
7783;SDS011;19359;51.402;6.778;2022-10-30T14:23:22;12.35;;;3.22;;
7783;SDS011;19359;51.402;6.778;2022-10-30T14:28:46;7.43;;;2.95;;
7783;SDS011;19359;51.402;6.778;2022-10-30T14:31:14;6.30;;;3.00;;
7783;SDS011;19359;51.402;6.778;2022-10-30T14:33:43;7.32;;;3.05;;
7783;SDS011;19359;51.402;6.778;2022-10-30T14:36:16;8.50;;;3.35;;
7783;SDS011;19359;51.402;6.778;2022-10-30T14:38:53;12.90;;;3.10;;
7783;SDS011;19359;51.402;6.778;2022-10-30T14:41:29;8.65;;;3.03;;
7783;SDS011;19359;51.402;6.778;2022-10-30T14:44:18;5.63;;;2.72;;
7783;SDS011;19359;51.402;6.778;2022-10-30T14:46:57;13.90;;;3.03;;
7783;SDS011;19359;51.402;6.778;2022-10-30T14:49:44;11.77;;;3.80;;
7783;SDS011;19359;51.402;6.778;2022-10-30T14:52:14;9.00;;;3.40;;
7783;SDS011;19359;51.402;6.778;2022-10-30T14:54:46;11.15;;;3.33;;
7783;SDS011;19359;51.402;6.778;2022-10-30T14:57:41;11.38;;;4.22;;
7783;SDS011;19359;51.402;6.778;2022-10-30T15:00:28;8.07;;;3.17;;
7783;SDS011;19359;51.402;6.778;2022-10-30T15:03:05;9.38;;;2.88;;
7783;SDS011;19359;51.402;6.778;2022-10-30T15:05:38;6.35;;;3.20;;
7783;SDS011;19359;51.402;6.778;2022-10-30T15:08:12;9.40;;;3.00;;
7783;SDS011;19359;51.402;6.778;2022-10-30T15:10:50;8.82;;;3.83;;
7783;SDS011;19359;51.402;6.778;2022-10-30T15:13:32;10.13;;;3.08;;
7783;SDS011;19359;51.402;6.778;2022-10-30T15:15:59;7.57;;;3.47;;
7783;SDS011;19359;51.402;6.778;2022-10-30T15:18:29;13.13;;;4.45;;
7783;SDS011;19359;51.402;6.778;2022-10-30T15:20:58;8.68;;;3.42;;
7783;SDS011;19359;51.402;6.778;2022-10-30T15:23:30;7.60;;;3.72;;